sensor_id;sensor_type;location;lat;lon;timestamp;P1;durP1;ratioP1;P2;durP2;ratioP2
42192;SDS011;52467;40.114;18.306;2022-10-16T00:01:25;18.90;;;9.07;;
42192;SDS011;52467;40.114;18.306;2022-10-16T00:03:57;16.40;;;9.02;;
42192;SDS011;52467;40.114;18.306;2022-10-16T00:06:25;18.40;;;9.95;;
42192;SDS011;52467;40.114;18.306;2022-10-16T00:08:54;18.13;;;9.63;;
42192;SDS011;52467;40.114;18.306;2022-10-16T00:11:25;20.23;;;9.23;;
42192;SDS011;52467;40.114;18.306;2022-10-16T00:14:07;23.20;;;10.27;;
42192;SDS011;52467;40.114;18.306;2022-10-16T00:16:38;19.13;;;10.15;;
42192;SDS011;52467;40.114;18.306;2022-10-16T00:19:06;20.85;;;9.18;;
42192;SDS011;52467;40.114;18.306;2022-10-16T00:21:33;21.35;;;10.55;;
42192;SDS011;52467;40.114;18.306;2022-10-16T00:24:19;20.73;;;10.97;;
42192;SDS011;52467;40.114;18.306;2022-10-16T00:26:49;19.50;;;10.25;;
42192;SDS011;52467;40.114;18.306;2022-10-16T00:29:17;21.55;;;10.25;;
42192;SDS011;52467;40.114;18.306;2022-10-16T00:31:44;20.48;;;10.32;;
42192;SDS011;52467;40.114;18.306;2022-10-16T00:34:12;20.92;;;11.13;;
42192;SDS011;52467;40.114;18.306;2022-10-16T00:36:39;23.58;;;11.35;;
42192;SDS011;52467;40.114;18.306;2022-10-16T00:39:06;25.13;;;11.27;;
42192;SDS011;52467;40.114;18.306;2022-10-16T00:41:34;17.73;;;10.40;;
42192;SDS011;52467;40.114;18.306;2022-10-16T00:44:02;21.63;;;10.13;;
42192;SDS011;52467;40.114;18.306;2022-10-16T00:46:50;22.35;;;12.07;;
42192;SDS011;52467;40.114;18.306;2022-10-16T00:49:18;25.08;;;11.70;;
42192;SDS011;52467;40.114;18.306;2022-10-16T00:51:47;25.15;;;11.65;;
42192;SDS011;52467;40.114;18.306;2022-10-16T00:54:22;23.40;;;12.68;;
42192;SDS011;52467;40.114;18.306;2022-10-16T00:56:51;26.73;;;12.23;;
42192;SDS011;52467;40.114;18.306;2022-10-16T01:01:47;26.13;;;12.40;;
42192;SDS011;52467;40.114;18.306;2022-10-16T01:04:15;25.25;;;12.18;;
42192;SDS011;52467;40.114;18.306;2022-10-16T01:09:50;23.77;;;11.57;;
42192;SDS011;52467;40.114;18.306;2022-10-16T01:15:01;23.90;;;12.30;;
42192;SDS011;52467;40.114;18.306;2022-10-16T01:17:43;26.65;;;11.48;;
42192;SDS011;52467;40.114;18.306;2022-10-16T01:20:27;20.73;;;11.35;;
42192;SDS011;52467;40.114;18.306;2022-10-16T01:23:04;24.70;;;12.45;;
42192;SDS011;52467;40.114;18.306;2022-10-16T01:28:32;28.67;;;11.82;;
42192;SDS011;52467;40.114;18.306;2022-10-16T01:31:03;22.02;;;11.32;;
42192;SDS011;52467;40.114;18.306;2022-10-16T01:33:35;22.80;;;11.65;;
42192;SDS011;52467;40.114;18.306;2022-10-16T01:36:12;27.90;;;12.73;;
42192;SDS011;52467;40.114;18.306;2022-10-16T01:38:42;23.85;;;11.73;;
42192;SDS011;52467;40.114;18.306;2022-10-16T01:41:15;24.53;;;12.17;;
42192;SDS011;52467;40.114;18.306;2022-10-16T01:43:49;22.83;;;11.93;;
42192;SDS011;52467;40.114;18.306;2022-10-16T01:46:23;28.00;;;12.73;;
42192;SDS011;52467;40.114;18.306;2022-10-16T01:48:51;24.65;;;12.48;;
42192;SDS011;52467;40.114;18.306;2022-10-16T01:51:19;26.17;;;12.63;;
42192;SDS011;52467;40.114;18.306;2022-10-16T01:53:48;26.02;;;12.27;;
42192;SDS011;52467;40.114;18.306;2022-10-16T01:56:18;27.63;;;13.05;;
42192;SDS011;52467;40.114;18.306;2022-10-16T01:58:49;28.23;;;13.07;;
42192;SDS011;52467;40.114;18.306;2022-10-16T02:01:23;23.60;;;12.50;;
42192;SDS011;52467;40.114;18.306;2022-10-16T02:03:53;24.95;;;12.77;;
42192;SDS011;52467;40.114;18.306;2022-10-16T02:06:21;24.75;;;12.70;;
42192;SDS011;52467;40.114;18.306;2022-10-16T02:08:49;22.75;;;11.63;;
42192;SDS011;52467;40.114;18.306;2022-10-16T02:11:17;27.73;;;12.47;;
42192;SDS011;52467;40.114;18.306;2022-10-16T02:13:55;24.67;;;11.38;;
42192;SDS011;52467;40.114;18.306;2022-10-16T02:16:35;25.65;;;12.50;;
42192;SDS011;52467;40.114;18.306;2022-10-16T02:19:13;23.02;;;12.70;;
42192;SDS011;52467;40.114;18.306;2022-10-16T02:29:40;23.75;;;12.00;;
42192;SDS011;52467;40.114;18.306;2022-10-16T02:32:15;22.70;;;11.60;;
42192;SDS011;52467;40.114;18.306;2022-10-16T02:34:46;30.20;;;13.35;;
42192;SDS011;52467;40.114;18.306;2022-10-16T02:37:16;23.40;;;12.38;;
42192;SDS011;52467;40.114;18.306;2022-10-16T02:39:43;21.33;;;11.57;;
42192;SDS011;52467;40.114;18.306;2022-10-16T02:42:12;22.08;;;11.90;;
42192;SDS011;52467;40.114;18.306;2022-10-16T02:44:40;20.30;;;11.68;;
42192;SDS011;52467;40.114;18.306;2022-10-16T02:47:07;27.65;;;12.75;;
42192;SDS011;52467;40.114;18.306;2022-10-16T02:49:35;24.43;;;11.70;;
42192;SDS011;52467;40.114;18.306;2022-10-16T02:52:02;25.40;;;12.02;;
42192;SDS011;52467;40.114;18.306;2022-10-16T02:54:30;26.52;;;11.88;;
42192;SDS011;52467;40.114;18.306;2022-10-16T02:56:57;25.90;;;10.82;;
42192;SDS011;52467;40.114;18.306;2022-10-16T02:59:24;28.70;;;11.95;;
42192;SDS011;52467;40.114;18.306;2022-10-16T03:01:52;22.83;;;12.68;;
42192;SDS011;52467;40.114;18.306;2022-10-16T03:04:19;23.50;;;12.70;;
42192;SDS011;52467;40.114;18.306;2022-10-16T03:06:46;23.70;;;11.60;;
42192;SDS011;52467;40.114;18.306;2022-10-16T03:09:14;23.15;;;12.15;;
42192;SDS011;52467;40.114;18.306;2022-10-16T03:11:41;28.65;;;12.63;;
42192;SDS011;52467;40.114;18.306;2022-10-16T03:14:08;26.57;;;12.50;;
42192;SDS011;52467;40.114;18.306;2022-10-16T03:16:36;25.52;;;12.68;;
42192;SDS011;52467;40.114;18.306;2022-10-16T03:19:03;25.30;;;12.43;;
42192;SDS011;52467;40.114;18.306;2022-10-16T03:21:31;27.33;;;12.48;;
42192;SDS011;52467;40.114;18.306;2022-10-16T03:23:58;26.48;;;13.57;;
42192;SDS011;52467;40.114;18.306;2022-10-16T03:26:25;26.20;;;13.18;;
42192;SDS011;52467;40.114;18.306;2022-10-16T03:28:53;25.13;;;13.15;;
42192;SDS011;52467;40.114;18.306;2022-10-16T03:31:20;23.87;;;12.23;;
42192;SDS011;52467;40.114;18.306;2022-10-16T03:33:47;24.58;;;12.60;;
42192;SDS011;52467;40.114;18.306;2022-10-16T03:36:15;23.80;;;12.25;;
42192;SDS011;52467;40.114;18.306;2022-10-16T03:38:42;22.00;;;11.87;;
42192;SDS011;52467;40.114;18.306;2022-10-16T03:41:09;24.17;;;11.80;;
42192;SDS011;52467;40.114;18.306;2022-10-16T03:43:37;23.52;;;11.38;;
42192;SDS011;52467;40.114;18.306;2022-10-16T03:46:04;24.30;;;11.90;;
42192;SDS011;52467;40.114;18.306;2022-10-16T03:48:32;23.55;;;12.82;;
42192;SDS011;52467;40.114;18.306;2022-10-16T03:50:59;29.00;;;13.80;;
42192;SDS011;52467;40.114;18.306;2022-10-16T03:53:26;24.08;;;12.45;;
42192;SDS011;52467;40.114;18.306;2022-10-16T03:55:54;26.60;;;13.43;;
42192;SDS011;52467;40.114;18.306;2022-10-16T03:58:22;29.77;;;14.00;;
42192;SDS011;52467;40.114;18.306;2022-10-16T04:00:49;27.55;;;13.95;;
42192;SDS011;52467;40.114;18.306;2022-10-16T04:03:16;30.00;;;13.57;;
42192;SDS011;52467;40.114;18.306;2022-10-16T04:05:45;30.30;;;14.57;;
42192;SDS011;52467;40.114;18.306;2022-10-16T04:08:12;26.98;;;14.18;;
42192;SDS011;52467;40.114;18.306;2022-10-16T04:10:42;30.37;;;15.10;;
42192;SDS011;52467;40.114;18.306;2022-10-16T04:13:10;28.77;;;14.10;;
42192;SDS011;52467;40.114;18.306;2022-10-16T04:15:38;29.65;;;13.98;;
42192;SDS011;52467;40.114;18.306;2022-10-16T04:18:05;33.92;;;14.90;;
42192;SDS011;52467;40.114;18.306;2022-10-16T04:20:33;30.53;;;14.20;;
42192;SDS011;52467;40.114;18.306;2022-10-16T04:23:00;25.70;;;13.85;;
42192;SDS011;52467;40.114;18.306;2022-10-16T04:25:28;26.40;;;13.48;;
42192;SDS011;52467;40.114;18.306;2022-10-16T04:27:55;27.65;;;13.05;;
42192;SDS011;52467;40.114;18.306;2022-10-16T04:30:23;31.80;;;14.10;;
42192;SDS011;52467;40.114;18.306;2022-10-16T04:32:50;27.02;;;13.80;;
42192;SDS011;52467;40.114;18.306;2022-10-16T04:35:19;30.80;;;13.20;;
42192;SDS011;52467;40.114;18.306;2022-10-16T04:37:47;28.42;;;14.20;;
42192;SDS011;52467;40.114;18.306;2022-10-16T04:40:14;34.42;;;15.63;;
42192;SDS011;52467;40.114;18.306;2022-10-16T04:42:42;32.17;;;15.37;;
42192;SDS011;52467;40.114;18.306;2022-10-16T04:45:09;30.70;;;14.35;;
42192;SDS011;52467;40.114;18.306;2022-10-16T04:47:37;34.03;;;14.98;;
42192;SDS011;52467;40.114;18.306;2022-10-16T04:50:04;31.90;;;15.85;;
42192;SDS011;52467;40.114;18.306;2022-10-16T04:52:33;29.88;;;15.13;;
42192;SDS011;52467;40.114;18.306;2022-10-16T04:55:05;33.22;;;15.52;;
42192;SDS011;52467;40.114;18.306;2022-10-16T04:57:33;31.20;;;15.77;;
42192;SDS011;52467;40.114;18.306;2022-10-16T05:00:00;33.78;;;15.07;;
42192;SDS011;52467;40.114;18.306;2022-10-16T05:02:29;36.47;;;16.13;;
42192;SDS011;52467;40.114;18.306;2022-10-16T05:04:56;35.25;;;16.25;;
42192;SDS011;52467;40.114;18.306;2022-10-16T05:07:24;33.15;;;16.17;;
42192;SDS011;52467;40.114;18.306;2022-10-16T05:09:51;37.42;;;16.10;;
42192;SDS011;52467;40.114;18.306;2022-10-16T05:12:20;36.35;;;17.50;;
42192;SDS011;52467;40.114;18.306;2022-10-16T05:14:47;41.58;;;18.35;;
42192;SDS011;52467;40.114;18.306;2022-10-16T05:17:14;41.60;;;17.87;;
42192;SDS011;52467;40.114;18.306;2022-10-16T05:19:42;41.90;;;18.05;;
42192;SDS011;52467;40.114;18.306;2022-10-16T05:22:09;41.97;;;19.27;;
42192;SDS011;52467;40.114;18.306;2022-10-16T05:24:37;43.85;;;19.52;;
42192;SDS011;52467;40.114;18.306;2022-10-16T05:27:04;43.13;;;20.10;;
42192;SDS011;52467;40.114;18.306;2022-10-16T05:29:31;45.70;;;20.00;;
42192;SDS011;52467;40.114;18.306;2022-10-16T05:31:59;44.05;;;18.35;;
42192;SDS011;52467;40.114;18.306;2022-10-16T05:34:26;42.63;;;19.58;;
42192;SDS011;52467;40.114;18.306;2022-10-16T05:36:53;43.30;;;20.02;;
42192;SDS011;52467;40.114;18.306;2022-10-16T05:39:21;46.42;;;18.48;;
42192;SDS011;52467;40.114;18.306;2022-10-16T05:41:49;39.88;;;18.92;;
42192;SDS011;52467;40.114;18.306;2022-10-16T05:44:17;44.75;;;19.65;;
42192;SDS011;52467;40.114;18.306;2022-10-16T05:46:45;54.38;;;21.15;;
42192;SDS011;52467;40.114;18.306;2022-10-16T05:49:13;58.10;;;20.27;;
42192;SDS011;52467;40.114;18.306;2022-10-16T05:51:40;51.50;;;20.27;;
42192;SDS011;52467;40.114;18.306;2022-10-16T05:54:08;42.33;;;20.35;;
42192;SDS011;52467;40.114;18.306;2022-10-16T05:56:35;44.95;;;20.77;;
42192;SDS011;52467;40.114;18.306;2022-10-16T05:59:03;43.78;;;19.65;;
42192;SDS011;52467;40.114;18.306;2022-10-16T06:01:31;51.47;;;20.63;;
42192;SDS011;52467;40.114;18.306;2022-10-16T06:03:59;45.47;;;21.43;;
42192;SDS011;52467;40.114;18.306;2022-10-16T06:06:27;49.25;;;20.77;;
42192;SDS011;52467;40.114;18.306;2022-10-16T06:08:56;50.53;;;21.92;;
42192;SDS011;52467;40.114;18.306;2022-10-16T06:11:26;48.33;;;21.38;;
42192;SDS011;52467;40.114;18.306;2022-10-16T06:13:56;50.13;;;22.23;;
42192;SDS011;52467;40.114;18.306;2022-10-16T06:16:25;51.33;;;22.95;;
42192;SDS011;52467;40.114;18.306;2022-10-16T06:18:53;51.65;;;22.70;;
42192;SDS011;52467;40.114;18.306;2022-10-16T06:21:23;55.22;;;23.52;;
42192;SDS011;52467;40.114;18.306;2022-10-16T06:23:51;53.33;;;23.65;;
42192;SDS011;52467;40.114;18.306;2022-10-16T06:26:20;54.72;;;24.42;;
42192;SDS011;52467;40.114;18.306;2022-10-16T06:28:49;52.85;;;23.30;;
42192;SDS011;52467;40.114;18.306;2022-10-16T06:31:16;52.00;;;22.95;;
42192;SDS011;52467;40.114;18.306;2022-10-16T06:33:44;54.35;;;23.20;;
42192;SDS011;52467;40.114;18.306;2022-10-16T06:36:15;56.85;;;23.63;;
42192;SDS011;52467;40.114;18.306;2022-10-16T06:38:43;53.47;;;23.63;;
42192;SDS011;52467;40.114;18.306;2022-10-16T06:41:12;55.30;;;23.23;;
42192;SDS011;52467;40.114;18.306;2022-10-16T06:43:41;56.45;;;24.63;;
42192;SDS011;52467;40.114;18.306;2022-10-16T06:46:11;59.55;;;23.95;;
42192;SDS011;52467;40.114;18.306;2022-10-16T06:48:39;53.13;;;25.57;;
42192;SDS011;52467;40.114;18.306;2022-10-16T06:51:11;66.47;;;26.03;;
42192;SDS011;52467;40.114;18.306;2022-10-16T06:53:43;65.95;;;27.00;;
42192;SDS011;52467;40.114;18.306;2022-10-16T06:56:27;67.03;;;27.47;;
42192;SDS011;52467;40.114;18.306;2022-10-16T06:58:56;68.05;;;27.63;;
42192;SDS011;52467;40.114;18.306;2022-10-16T07:01:24;68.40;;;28.80;;
42192;SDS011;52467;40.114;18.306;2022-10-16T07:03:52;65.85;;;27.73;;
42192;SDS011;52467;40.114;18.306;2022-10-16T07:06:20;67.32;;;28.70;;
42192;SDS011;52467;40.114;18.306;2022-10-16T07:08:49;65.23;;;28.03;;
42192;SDS011;52467;40.114;18.306;2022-10-16T07:11:18;67.75;;;27.95;;
42192;SDS011;52467;40.114;18.306;2022-10-16T07:13:47;62.92;;;27.35;;
42192;SDS011;52467;40.114;18.306;2022-10-16T07:16:17;60.33;;;27.33;;
42192;SDS011;52467;40.114;18.306;2022-10-16T07:18:46;60.03;;;26.33;;
42192;SDS011;52467;40.114;18.306;2022-10-16T07:21:17;57.88;;;27.20;;
42192;SDS011;52467;40.114;18.306;2022-10-16T07:23:55;63.13;;;26.67;;
42192;SDS011;52467;40.114;18.306;2022-10-16T07:26:24;55.92;;;25.80;;
42192;SDS011;52467;40.114;18.306;2022-10-16T07:28:52;61.90;;;26.77;;
42192;SDS011;52467;40.114;18.306;2022-10-16T07:31:20;56.40;;;25.27;;
42192;SDS011;52467;40.114;18.306;2022-10-16T07:33:48;56.60;;;25.85;;
42192;SDS011;52467;40.114;18.306;2022-10-16T07:36:15;57.73;;;27.10;;
42192;SDS011;52467;40.114;18.306;2022-10-16T07:38:44;50.35;;;23.98;;
42192;SDS011;52467;40.114;18.306;2022-10-16T07:41:13;52.95;;;26.70;;
42192;SDS011;52467;40.114;18.306;2022-10-16T07:43:46;51.00;;;24.77;;
42192;SDS011;52467;40.114;18.306;2022-10-16T07:46:18;54.93;;;24.20;;
42192;SDS011;52467;40.114;18.306;2022-10-16T07:48:46;49.20;;;23.80;;
42192;SDS011;52467;40.114;18.306;2022-10-16T07:51:15;49.63;;;22.95;;
42192;SDS011;52467;40.114;18.306;2022-10-16T07:53:44;46.83;;;23.70;;
42192;SDS011;52467;40.114;18.306;2022-10-16T07:56:12;43.45;;;21.98;;
42192;SDS011;52467;40.114;18.306;2022-10-16T07:58:40;40.40;;;21.48;;
42192;SDS011;52467;40.114;18.306;2022-10-16T08:01:09;43.10;;;21.10;;
42192;SDS011;52467;40.114;18.306;2022-10-16T08:03:37;40.40;;;20.67;;
42192;SDS011;52467;40.114;18.306;2022-10-16T08:06:04;39.78;;;20.15;;
42192;SDS011;52467;40.114;18.306;2022-10-16T08:08:32;37.63;;;19.70;;
42192;SDS011;52467;40.114;18.306;2022-10-16T08:10:59;37.75;;;19.48;;
42192;SDS011;52467;40.114;18.306;2022-10-16T08:13:26;35.97;;;19.40;;
42192;SDS011;52467;40.114;18.306;2022-10-16T08:15:54;36.92;;;18.75;;
42192;SDS011;52467;40.114;18.306;2022-10-16T08:18:22;35.78;;;17.67;;
42192;SDS011;52467;40.114;18.306;2022-10-16T08:20:56;29.50;;;16.08;;
42192;SDS011;52467;40.114;18.306;2022-10-16T08:23:24;25.10;;;14.18;;
42192;SDS011;52467;40.114;18.306;2022-10-16T08:25:56;26.05;;;13.50;;
42192;SDS011;52467;40.114;18.306;2022-10-16T08:28:28;23.87;;;12.93;;
42192;SDS011;52467;40.114;18.306;2022-10-16T08:30:55;21.00;;;12.15;;
42192;SDS011;52467;40.114;18.306;2022-10-16T08:33:23;22.77;;;13.05;;
42192;SDS011;52467;40.114;18.306;2022-10-16T08:35:52;22.17;;;12.43;;
42192;SDS011;52467;40.114;18.306;2022-10-16T08:38:20;28.63;;;14.70;;
42192;SDS011;52467;40.114;18.306;2022-10-16T08:40:48;26.02;;;14.75;;
42192;SDS011;52467;40.114;18.306;2022-10-16T08:43:21;28.23;;;14.48;;
42192;SDS011;52467;40.114;18.306;2022-10-16T08:49:01;23.25;;;12.68;;
42192;SDS011;52467;40.114;18.306;2022-10-16T08:51:31;19.88;;;11.90;;
42192;SDS011;52467;40.114;18.306;2022-10-16T08:54:04;19.00;;;11.73;;
42192;SDS011;52467;40.114;18.306;2022-10-16T08:56:32;18.50;;;11.45;;
42192;SDS011;52467;40.114;18.306;2022-10-16T08:59:02;22.70;;;11.07;;
42192;SDS011;52467;40.114;18.306;2022-10-16T09:09:54;19.20;;;11.00;;
42192;SDS011;52467;40.114;18.306;2022-10-16T09:13:26;19.35;;;10.88;;
42192;SDS011;52467;40.114;18.306;2022-10-16T09:15:35;22.30;;;11.68;;
42192;SDS011;52467;40.114;18.306;2022-10-16T09:18:26;21.17;;;11.15;;
42192;SDS011;52467;40.114;18.306;2022-10-16T09:21:35;20.13;;;10.75;;
42192;SDS011;52467;40.114;18.306;2022-10-16T09:24:33;14.85;;;9.45;;
42192;SDS011;52467;40.114;18.306;2022-10-16T09:26:54;12.85;;;8.10;;
42192;SDS011;52467;40.114;18.306;2022-10-16T09:29:22;13.68;;;8.07;;
42192;SDS011;52467;40.114;18.306;2022-10-16T09:31:52;15.13;;;8.27;;
42192;SDS011;52467;40.114;18.306;2022-10-16T09:34:27;14.83;;;8.80;;
42192;SDS011;52467;40.114;18.306;2022-10-16T09:36:58;12.75;;;6.82;;
42192;SDS011;52467;40.114;18.306;2022-10-16T09:39:27;9.97;;;6.77;;
42192;SDS011;52467;40.114;18.306;2022-10-16T09:41:54;11.55;;;7.63;;
42192;SDS011;52467;40.114;18.306;2022-10-16T09:44:29;13.25;;;8.25;;
42192;SDS011;52467;40.114;18.306;2022-10-16T09:47:01;12.73;;;8.07;;
42192;SDS011;52467;40.114;18.306;2022-10-16T09:49:37;10.60;;;7.05;;
42192;SDS011;52467;40.114;18.306;2022-10-16T09:54:36;12.68;;;7.30;;
42192;SDS011;52467;40.114;18.306;2022-10-16T09:57:04;12.13;;;6.63;;
42192;SDS011;52467;40.114;18.306;2022-10-16T09:59:32;12.50;;;6.63;;
42192;SDS011;52467;40.114;18.306;2022-10-16T10:02:03;13.55;;;7.10;;
42192;SDS011;52467;40.114;18.306;2022-10-16T10:04:48;10.98;;;6.97;;
42192;SDS011;52467;40.114;18.306;2022-10-16T10:07:25;10.73;;;6.32;;
42192;SDS011;52467;40.114;18.306;2022-10-16T10:10:01;11.98;;;6.28;;
42192;SDS011;52467;40.114;18.306;2022-10-16T10:12:31;9.80;;;5.55;;
42192;SDS011;52467;40.114;18.306;2022-10-16T10:15:05;10.10;;;5.82;;
42192;SDS011;52467;40.114;18.306;2022-10-16T10:17:47;8.00;;;5.27;;
42192;SDS011;52467;40.114;18.306;2022-10-16T10:22:55;9.93;;;5.80;;
42192;SDS011;52467;40.114;18.306;2022-10-16T10:57:10;9.10;;;5.78;;
42192;SDS011;52467;40.114;18.306;2022-10-16T11:05:28;10.07;;;5.32;;
42192;SDS011;52467;40.114;18.306;2022-10-16T11:08:18;9.25;;;5.50;;
42192;SDS011;52467;40.114;18.306;2022-10-16T11:10:52;9.35;;;5.78;;
42192;SDS011;52467;40.114;18.306;2022-10-16T11:13:33;13.45;;;6.13;;
42192;SDS011;52467;40.114;18.306;2022-10-16T11:16:13;10.25;;;5.85;;
42192;SDS011;52467;40.114;18.306;2022-10-16T11:19:04;14.85;;;6.40;;
42192;SDS011;52467;40.114;18.306;2022-10-16T11:27:55;12.70;;;6.47;;
42192;SDS011;52467;40.114;18.306;2022-10-16T11:30:39;11.00;;;5.75;;
42192;SDS011;52467;40.114;18.306;2022-10-16T11:33:24;11.38;;;5.53;;
42192;SDS011;52467;40.114;18.306;2022-10-16T11:36:08;13.37;;;7.17;;
42192;SDS011;52467;40.114;18.306;2022-10-16T11:39:08;9.10;;;5.85;;
42192;SDS011;52467;40.114;18.306;2022-10-16T11:44:50;11.93;;;5.20;;
42192;SDS011;52467;40.114;18.306;2022-10-16T11:47:45;10.27;;;5.75;;
42192;SDS011;52467;40.114;18.306;2022-10-16T11:55:59;9.90;;;5.47;;
42192;SDS011;52467;40.114;18.306;2022-10-16T11:58:29;11.15;;;6.32;;
42192;SDS011;52467;40.114;18.306;2022-10-16T12:03:40;9.73;;;6.13;;
42192;SDS011;52467;40.114;18.306;2022-10-16T12:09:04;10.50;;;5.85;;
42192;SDS011;52467;40.114;18.306;2022-10-16T12:11:34;10.60;;;6.15;;
42192;SDS011;52467;40.114;18.306;2022-10-16T12:14:59;10.43;;;6.13;;
42192;SDS011;52467;40.114;18.306;2022-10-16T12:17:00;10.00;;;5.80;;
42192;SDS011;52467;40.114;18.306;2022-10-16T12:20:12;12.32;;;6.90;;
42192;SDS011;52467;40.114;18.306;2022-10-16T12:22:48;12.95;;;6.13;;
42192;SDS011;52467;40.114;18.306;2022-10-16T12:25:35;11.80;;;6.70;;
42192;SDS011;52467;40.114;18.306;2022-10-16T12:28:06;11.27;;;6.32;;
42192;SDS011;52467;40.114;18.306;2022-10-16T12:31:03;13.45;;;6.03;;
42192;SDS011;52467;40.114;18.306;2022-10-16T12:33:32;12.10;;;6.68;;
42192;SDS011;52467;40.114;18.306;2022-10-16T12:36:04;13.10;;;6.97;;
42192;SDS011;52467;40.114;18.306;2022-10-16T12:38:38;11.30;;;6.23;;
42192;SDS011;52467;40.114;18.306;2022-10-16T12:41:29;13.50;;;6.60;;
42192;SDS011;52467;40.114;18.306;2022-10-16T12:43:58;14.57;;;6.47;;
42192;SDS011;52467;40.114;18.306;2022-10-16T12:49:06;12.13;;;7.07;;
42192;SDS011;52467;40.114;18.306;2022-10-16T12:51:41;11.15;;;7.13;;
42192;SDS011;52467;40.114;18.306;2022-10-16T12:54:12;13.13;;;7.20;;
42192;SDS011;52467;40.114;18.306;2022-10-16T13:02:11;13.05;;;6.53;;
42192;SDS011;52467;40.114;18.306;2022-10-16T13:10:15;11.73;;;6.38;;
42192;SDS011;52467;40.114;18.306;2022-10-16T13:18:15;11.45;;;5.93;;
42192;SDS011;52467;40.114;18.306;2022-10-16T13:23:52;10.73;;;5.80;;
42192;SDS011;52467;40.114;18.306;2022-10-16T13:26:28;9.88;;;5.35;;
42192;SDS011;52467;40.114;18.306;2022-10-16T13:29:09;7.78;;;4.85;;
42192;SDS011;52467;40.114;18.306;2022-10-16T13:31:37;7.57;;;4.82;;
42192;SDS011;52467;40.114;18.306;2022-10-16T13:34:05;10.10;;;4.95;;
42192;SDS011;52467;40.114;18.306;2022-10-16T13:36:44;5.90;;;3.80;;
42192;SDS011;52467;40.114;18.306;2022-10-16T13:39:14;4.67;;;3.40;;
42192;SDS011;52467;40.114;18.306;2022-10-16T13:41:46;6.05;;;3.42;;
42192;SDS011;52467;40.114;18.306;2022-10-16T13:44:24;3.80;;;2.70;;
42192;SDS011;52467;40.114;18.306;2022-10-16T13:46:58;4.93;;;2.95;;
42192;SDS011;52467;40.114;18.306;2022-10-16T13:49:27;6.20;;;2.95;;
42192;SDS011;52467;40.114;18.306;2022-10-16T13:51:58;3.88;;;2.40;;
42192;SDS011;52467;40.114;18.306;2022-10-16T13:54:26;4.78;;;2.90;;
42192;SDS011;52467;40.114;18.306;2022-10-16T13:57:04;5.78;;;2.80;;
42192;SDS011;52467;40.114;18.306;2022-10-16T13:59:35;6.10;;;2.80;;
42192;SDS011;52467;40.114;18.306;2022-10-16T14:02:08;4.85;;;2.83;;
42192;SDS011;52467;40.114;18.306;2022-10-16T14:04:45;10.65;;;3.67;;
42192;SDS011;52467;40.114;18.306;2022-10-16T14:07:13;4.50;;;2.67;;
42192;SDS011;52467;40.114;18.306;2022-10-16T14:09:48;5.82;;;2.75;;
42192;SDS011;52467;40.114;18.306;2022-10-16T14:12:17;4.63;;;2.58;;
42192;SDS011;52467;40.114;18.306;2022-10-16T14:14:46;7.28;;;2.90;;
42192;SDS011;52467;40.114;18.306;2022-10-16T14:20:03;6.03;;;3.13;;
42192;SDS011;52467;40.114;18.306;2022-10-16T14:22:39;3.50;;;2.97;;
42192;SDS011;52467;40.114;18.306;2022-10-16T14:25:21;4.30;;;2.93;;
42192;SDS011;52467;40.114;18.306;2022-10-16T14:30:32;6.20;;;3.38;;
42192;SDS011;52467;40.114;18.306;2022-10-16T14:33:02;4.40;;;3.13;;
42192;SDS011;52467;40.114;18.306;2022-10-16T14:35:35;4.30;;;2.95;;
42192;SDS011;52467;40.114;18.306;2022-10-16T14:38:06;5.13;;;3.30;;
42192;SDS011;52467;40.114;18.306;2022-10-16T14:40:46;7.65;;;3.22;;
42192;SDS011;52467;40.114;18.306;2022-10-16T14:43:14;4.82;;;3.25;;
42192;SDS011;52467;40.114;18.306;2022-10-16T14:45:54;4.18;;;3.17;;
42192;SDS011;52467;40.114;18.306;2022-10-16T14:48:22;5.07;;;2.97;;
42192;SDS011;52467;40.114;18.306;2022-10-16T14:50:50;5.60;;;2.97;;
42192;SDS011;52467;40.114;18.306;2022-10-16T14:53:18;4.82;;;3.33;;
42192;SDS011;52467;40.114;18.306;2022-10-16T14:55:45;8.02;;;3.30;;
42192;SDS011;52467;40.114;18.306;2022-10-16T14:58:16;5.18;;;3.42;;
42192;SDS011;52467;40.114;18.306;2022-10-16T15:00:45;5.68;;;3.53;;
42192;SDS011;52467;40.114;18.306;2022-10-16T15:03:13;7.53;;;3.70;;
42192;SDS011;52467;40.114;18.306;2022-10-16T15:05:41;7.28;;;3.90;;
42192;SDS011;52467;40.114;18.306;2022-10-16T15:08:09;7.70;;;3.78;;
42192;SDS011;52467;40.114;18.306;2022-10-16T15:10:40;5.70;;;3.70;;
42192;SDS011;52467;40.114;18.306;2022-10-16T15:13:12;6.25;;;3.72;;
42192;SDS011;52467;40.114;18.306;2022-10-16T15:15:42;10.15;;;4.10;;
42192;SDS011;52467;40.114;18.306;2022-10-16T15:18:10;7.13;;;3.90;;
42192;SDS011;52467;40.114;18.306;2022-10-16T15:20:38;6.82;;;4.15;;
42192;SDS011;52467;40.114;18.306;2022-10-16T15:23:10;5.82;;;3.60;;
42192;SDS011;52467;40.114;18.306;2022-10-16T15:28:12;6.03;;;3.70;;
42192;SDS011;52467;40.114;18.306;2022-10-16T15:30:41;7.53;;;3.75;;
42192;SDS011;52467;40.114;18.306;2022-10-16T15:33:11;5.18;;;3.58;;
42192;SDS011;52467;40.114;18.306;2022-10-16T15:35:44;5.55;;;3.58;;
42192;SDS011;52467;40.114;18.306;2022-10-16T15:38:15;5.40;;;3.88;;
42192;SDS011;52467;40.114;18.306;2022-10-16T15:40:43;6.27;;;3.80;;
42192;SDS011;52467;40.114;18.306;2022-10-16T15:43:10;7.22;;;3.95;;
42192;SDS011;52467;40.114;18.306;2022-10-16T15:45:38;6.28;;;3.70;;
42192;SDS011;52467;40.114;18.306;2022-10-16T15:48:06;7.20;;;4.00;;
42192;SDS011;52467;40.114;18.306;2022-10-16T15:50:35;5.80;;;3.70;;
42192;SDS011;52467;40.114;18.306;2022-10-16T15:53:04;6.03;;;4.23;;
42192;SDS011;52467;40.114;18.306;2022-10-16T15:55:32;5.95;;;4.00;;
42192;SDS011;52467;40.114;18.306;2022-10-16T15:58:00;6.45;;;4.15;;
42192;SDS011;52467;40.114;18.306;2022-10-16T16:00:28;7.90;;;4.43;;
42192;SDS011;52467;40.114;18.306;2022-10-16T16:02:55;5.60;;;4.22;;
42192;SDS011;52467;40.114;18.306;2022-10-16T16:05:23;5.63;;;4.20;;
42192;SDS011;52467;40.114;18.306;2022-10-16T16:07:50;6.90;;;4.30;;
42192;SDS011;52467;40.114;18.306;2022-10-16T16:10:18;6.97;;;4.47;;
42192;SDS011;52467;40.114;18.306;2022-10-16T16:12:47;7.30;;;4.18;;
42192;SDS011;52467;40.114;18.306;2022-10-16T16:15:21;6.60;;;4.15;;
42192;SDS011;52467;40.114;18.306;2022-10-16T16:17:51;6.13;;;4.03;;
42192;SDS011;52467;40.114;18.306;2022-10-16T16:20:18;8.10;;;4.38;;
42192;SDS011;52467;40.114;18.306;2022-10-16T16:22:45;7.28;;;4.22;;
42192;SDS011;52467;40.114;18.306;2022-10-16T16:25:13;7.95;;;4.40;;
42192;SDS011;52467;40.114;18.306;2022-10-16T16:27:40;6.05;;;3.90;;
42192;SDS011;52467;40.114;18.306;2022-10-16T16:30:09;6.90;;;4.50;;
42192;SDS011;52467;40.114;18.306;2022-10-16T16:32:39;7.70;;;4.50;;
42192;SDS011;52467;40.114;18.306;2022-10-16T16:35:07;8.10;;;4.45;;
42192;SDS011;52467;40.114;18.306;2022-10-16T16:37:34;6.40;;;4.25;;
42192;SDS011;52467;40.114;18.306;2022-10-16T16:40:02;5.82;;;4.20;;
42192;SDS011;52467;40.114;18.306;2022-10-16T16:42:30;10.77;;;4.80;;